Time;durP1;ratioP1;P1;durP2;ratioP2;P2;SDS_P1;SDS_P2;PMS_P1;PMS_P2;Temp;Humidity;BMP_temperature;BMP_pressure;BME280_temperature;BME280_humidity;BME280_pressure;Samples;Min_cycle;Max_cycle;Signal;HPM_P1;HPM_P2
2023/09/15 00:01:12;;;;;;;3.00;1.65;;;;;;;22.44;46.54;101865.59;16160815;19;132508;-60
2023/09/15 00:06:37;;;;;;;2.40;1.70;;;;;;;22.43;46.01;101870.31;16176883;19;129000;-60
2023/09/15 00:11:59;;;;;;;3.20;1.20;;;;;;;22.42;46.40;101868.63;16181516;19;129594;-59
2023/09/15 00:17:21;;;;;;;2.30;1.30;;;;;;;22.42;46.37;101863.06;16187866;19;129591;-59
2023/09/15 00:22:49;;;;;;;1.42;1.20;;;;;;;22.40;46.75;101851.28;16193771;19;128836;-61
2023/09/15 00:28:13;;;;;;;1.50;1.25;;;;;;;22.39;46.30;101852.41;16193301;19;129534;-59
2023/09/15 00:33:35;;;;;;;2.17;1.30;;;;;;;22.39;46.41;101854.34;16193318;19;128572;-59
2023/09/15 00:38:57;;;;;;;1.48;1.05;;;;;;;22.38;46.39;101850.72;16188535;19;129961;-60
2023/09/15 00:44:18;;;;;;;1.63;1.23;;;;;;;22.38;46.39;101850.72;16204993;19;128943;-60
2023/09/15 00:49:41;;;;;;;1.30;1.20;;;;;;;22.37;46.12;101848.16;16168784;19;129259;-60
2023/09/15 00:55:04;;;;;;;1.95;1.25;;;;;;;22.36;46.22;101840.91;16149796;19;129091;-60
2023/09/15 01:00:27;;;;;;;1.45;1.35;;;;;;;22.35;46.45;101845.63;16144413;19;129108;-61
2023/09/15 01:05:49;;;;;;;1.60;1.25;;;;;;;22.35;46.33;101842.00;16145453;19;130254;-60
2023/09/15 01:11:11;;;;;;;2.92;1.50;;;;;;;22.33;46.32;101838.63;16139623;19;133985;-61
2023/09/15 01:16:45;;;;;;;2.35;1.20;;;;;;;22.33;46.42;101825.53;16140243;19;129200;-60
2023/09/15 01:22:59;;;;;;;2.60;1.45;;;;;;;22.32;46.40;101828.56;16143577;19;129310;-60
2023/09/15 01:29:03;;;;;;;1.60;1.38;;;;;;;22.32;46.11;101815.47;16125474;19;130078;-60
2023/09/15 01:34:25;;;;;;;1.85;1.42;;;;;;;22.28;46.59;101817.91;16113617;19;129769;-60
2023/09/15 01:39:47;;;;;;;1.10;1.00;;;;;;;22.29;46.50;101813.16;16110143;19;131245;-60
2023/09/15 01:45:10;;;;;;;1.60;1.33;;;;;;;22.27;46.66;101816.22;16108971;19;130173;-60
2023/09/15 01:50:32;;;;;;;1.83;1.40;;;;;;;22.27;46.82;101810.66;16104889;19;131311;-60
2023/09/15 01:55:54;;;;;;;1.85;1.45;;;;;;;22.28;46.44;101819.84;16105094;19;131229;-59
2023/09/15 02:01:16;;;;;;;1.48;1.35;;;;;;;22.27;46.28;101815.38;16109673;19;129758;-60
2023/09/15 02:06:39;;;;;;;1.77;1.60;;;;;;;22.27;46.40;101813.44;16111683;19;129547;-61
2023/09/15 02:12:02;;;;;;;1.50;1.30;;;;;;;22.25;46.20;101806.44;16112233;19;131058;-60
2023/09/15 02:17:24;;;;;;;2.70;1.10;;;;;;;22.25;46.38;101801.69;16119236;19;130139;-60
2023/09/15 02:22:46;;;;;;;3.70;1.50;;;;;;;22.25;46.52;101809.22;16116778;19;129544;-60
2023/09/15 02:28:08;;;;;;;1.90;1.50;;;;;;;22.23;46.50;101812.22;16118688;19;130324;-60
2023/09/15 02:33:30;;;;;;;1.58;1.20;;;;;;;22.23;46.64;101803.03;16117266;19;130663;-63
2023/09/15 02:38:54;;;;;;;2.65;0.95;;;;;;;22.22;46.66;101801.34;16117086;19;133553;-59
2023/09/15 02:44:16;;;;;;;1.38;1.17;;;;;;;22.22;46.24;101795.78;16117619;19;131100;-59
2023/09/15 02:49:38;;;;;;;1.20;1.10;;;;;;;22.21;46.74;101788.50;16114635;19;130135;-59
2023/09/15 02:55:01;;;;;;;1.92;1.30;;;;;;;22.20;46.59;101789.56;16115002;19;130659;-59
2023/09/15 03:00:23;;;;;;;2.72;1.55;;;;;;;22.20;46.33;101784.00;16109101;19;131279;-59
2023/09/15 03:05:45;;;;;;;2.28;1.67;;;;;;;22.18;46.45;101772.25;16116241;19;129936;-59
2023/09/15 03:11:16;;;;;;;2.42;1.70;;;;;;;22.18;46.29;101763.88;16113051;19;131121;-59
2023/09/15 03:16:42;;;;;;;3.30;1.90;;;;;;;22.17;46.60;101764.97;16110080;19;130155;-59
2023/09/15 03:22:04;;;;;;;;;;;;;;;22.13;46.57;101773.84;16114126;19;129517;-59
2023/09/15 03:27:29;;;;;;;1.40;1.30;;;;;;;22.16;46.62;101768.84;16111935;19;132256;-59
2023/09/15 03:32:51;;;;;;;1.42;1.33;;;;;;;22.13;46.64;101776.66;16116474;19;131361;-59
2023/09/15 03:38:13;;;;;;;1.35;1.13;;;;;;;22.13;46.63;101776.66;16115213;19;130104;-59
2023/09/15 03:43:35;;;;;;;1.90;1.30;;;;;;;22.12;46.76;101763.81;16113916;19;129211;-62
2023/09/15 03:48:57;;;;;;;1.40;1.30;;;;;;;22.11;46.62;101756.53;16116450;19;129499;-59
2023/09/15 03:54:19;;;;;;;1.88;1.52;;;;;;;22.11;46.88;101762.09;16112471;19;129756;-59
2023/09/15 03:59:41;;;;;;;2.55;1.67;;;;;;;22.10;46.60;101760.41;16112136;19;129502;-63
2023/09/15 04:05:04;;;;;;;1.95;1.55;;;;;;;22.10;46.72;101757.63;16114479;19;129933;-59
2023/09/15 04:10:26;;;;;;;2.38;1.50;;;;;;;22.10;46.60;101751.19;16113941;19;129724;-59
2023/09/15 04:15:48;;;;;;;3.10;1.48;;;;;;;22.08;46.66;101748.66;16119328;19;130383;-59
2023/09/15 04:21:10;;;;;;;1.88;1.35;;;;;;;22.08;46.89;101745.06;16131547;19;130329;-60
2023/09/15 04:26:32;;;;;;;2.40;1.50;;;;;;;22.07;46.61;101755.34;16133269;19;132942;-61
2023/09/15 04:31:54;;;;;;;2.33;1.70;;;;;;;22.05;46.68;101749.16;16131502;19;131170;-61
2023/09/15 04:37:16;;;;;;;1.63;1.50;;;;;;;22.05;46.55;101751.94;16127712;19;129682;-61
2023/09/15 04:42:41;;;;;;;3.15;1.50;;;;;;;22.04;46.54;101755.81;16127736;19;129614;-61
2023/09/15 04:48:03;;;;;;;2.13;1.45;;;;;;;22.04;46.70;101758.59;16131862;19;129713;-60
2023/09/15 04:53:25;;;;;;;2.10;1.40;;;;;;;22.03;46.62;101742.97;16130738;19;129849;-61
2023/09/15 04:58:48;;;;;;;2.97;1.42;;;;;;;22.04;46.74;101763.34;16130685;19;129680;-61
2023/09/15 05:04:13;;;;;;;1.50;1.20;;;;;;;22.02;46.94;101763.63;16127158;19;129667;-60
2023/09/15 05:09:36;;;;;;;2.92;1.40;;;;;;;22.03;46.97;101770.00;16119077;19;131128;-61
2023/09/15 05:14:57;;;;;;;1.50;1.30;;;;;;;22.01;46.72;101761.91;16116231;19;130136;-57
2023/09/15 05:20:19;;;;;;;3.45;2.70;;;;;;;21.95;45.40;101757.31;16115520;19;130137;-57
2023/09/15 05:25:41;;;;;;;4.88;2.17;;;;;;;21.90;44.70;101766.44;16118125;19;131005;-58
2023/09/15 05:31:03;;;;;;;3.30;1.90;;;;;;;21.92;45.82;101763.38;16114662;19;130526;-54
2023/09/15 05:36:26;;;;;;;2.63;1.70;;;;;;;21.92;45.54;101761.47;16114432;19;130207;-57
2023/09/15 05:41:48;;;;;;;4.28;1.70;;;;;;;21.94;45.46;101766.78;16114053;19;130014;-56
2023/09/15 05:47:10;;;;;;;4.88;1.98;;;;;;;21.98;45.68;101765.19;16109878;19;130462;-54
2023/09/15 05:52:32;;;;;;;4.15;1.58;;;;;;;22.02;45.47;101769.19;16112785;19;130311;-56
2023/09/15 05:57:54;;;;;;;2.75;1.80;;;;;;;22.06;45.13;101770.34;16113354;19;129948;-56
2023/09/15 06:03:16;;;;;;;3.65;1.77;;;;;;;22.12;45.28;101771.28;16115571;19;129568;-51
2023/09/15 06:08:38;;;;;;;5.57;1.70;;;;;;;22.14;45.25;101780.25;15955181;19;3086959;-54
2023/09/15 06:14:00;;;;;;;6.05;1.83;;;;;;;22.18;45.13;101764.75;16116962;19;131231;-56
2023/09/15 06:19:22;;;;;;;3.85;1.50;;;;;;;22.23;45.26;101758.44;16120569;19;131240;-52
2023/09/15 06:24:44;;;;;;;5.32;1.50;;;;;;;22.27;44.77;101754.91;16115543;19;129713;-55
2023/09/15 06:30:07;;;;;;;8.30;1.73;;;;;;;22.32;44.74;101761.66;16120757;19;130339;-55
2023/09/15 06:35:29;;;;;;;4.53;1.90;;;;;;;22.36;44.24;101760.91;16117652;19;130207;-59
2023/09/15 06:40:51;;;;;;;3.55;1.40;;;;;;;22.41;44.28;101755.41;16124014;19;129827;-58
2023/09/15 06:46:18;;;;;;;3.10;1.67;;;;;;;22.47;44.44;101753.56;16121153;19;130324;-58
2023/09/15 06:51:40;;;;;;;4.05;1.65;;;;;;;22.53;43.86;101740.53;16120529;19;130538;-59
2023/09/15 06:57:02;;;;;;;3.53;1.38;;;;;;;22.57;44.13;101747.31;16118109;19;131873;-54
2023/09/15 07:02:26;;;;;;;4.32;1.58;;;;;;;22.64;44.06;101736.00;16119498;19;130184;-58
2023/09/15 07:07:48;;;;;;;5.43;2.00;;;;;;;22.70;43.98;101733.03;16117450;19;129997;-58
2023/09/15 07:13:10;;;;;;;4.68;1.80;;;;;;;22.73;44.05;101732.53;16118893;19;129827;-58
2023/09/15 07:18:32;;;;;;;3.25;1.52;;;;;;;22.76;43.60;101731.16;16118400;19;130068;-58
2023/09/15 07:23:55;;;;;;;2.75;1.60;;;;;;;22.77;44.14;101737.59;16116184;19;130198;-58
2023/09/15 07:29:16;;;;;;;3.35;1.70;;;;;;;22.76;44.14;101733.13;16117438;19;130379;-59
2023/09/15 07:34:38;;;;;;;4.40;1.50;;;;;;;22.80;43.84;101731.50;16118530;19;130581;-59
2023/09/15 07:40:00;;;;;;;2.90;1.38;;;;;;;22.82;43.56;101727.38;16118483;19;129839;-60
2023/09/15 07:45:23;;;;;;;3.97;1.50;;;;;;;22.84;43.61;101730.72;16116260;19;130723;-60
2023/09/15 07:50:45;;;;;;;3.60;1.85;;;;;;;22.86;43.85;101727.69;16118290;19;130260;-59
2023/09/15 07:56:07;;;;;;;4.20;1.80;;;;;;;22.88;43.58;101725.50;16116333;19;129432;-60
2023/09/15 08:01:29;;;;;;;3.42;1.67;;;;;;;22.87;43.48;101721.84;16111429;19;130207;-55
2023/09/15 08:06:51;;;;;;;4.25;1.75;;;;;;;22.89;43.45;101713.25;16109264;19;130186;-57
2023/09/15 08:12:15;;;;;;;3.53;1.98;;;;;;;22.91;43.47;101719.41;16110516;19;132074;-59
2023/09/15 08:17:37;;;;;;;4.60;1.50;;;;;;;22.91;43.43;101713.84;16112544;19;129612;-59
2023/09/15 08:22:59;;;;;;;3.03;1.65;;;;;;;22.91;43.56;101711.03;16097827;19;130808;-58
2023/09/15 08:28:22;;;;;;;2.65;1.70;;;;;;;22.89;43.62;101716.03;16114549;19;130171;-58
2023/09/15 08:33:44;;;;;;;5.80;1.70;;;;;;;22.89;43.69;101713.25;16112685;19;129489;-58
2023/09/15 08:39:12;;;;;;;2.72;1.58;;;;;;;22.88;43.43;101717.13;16114987;19;130684;-58
2023/09/15 08:44:35;;;;;;;3.90;1.95;;;;;;;22.87;43.64;101707.91;16111745;19;130624;-59
2023/09/15 08:49:57;;;;;;;2.42;1.70;;;;;;;22.86;44.08;101710.94;16111654;19;131125;-59
2023/09/15 08:55:20;;;;;;;3.80;1.73;;;;;;;22.85;43.72;101714.84;16110649;19;130013;-58
2023/09/15 09:00:42;;;;;;;3.10;1.77;;;;;;;22.83;44.23;101706.72;16111895;19;131421;-58
2023/09/15 09:06:09;;;;;;;5.07;1.80;;;;;;;22.84;43.86;101704.78;16128260;19;129459;-57
2023/09/15 09:11:32;;;;;;;2.85;1.48;;;;;;;22.80;44.28;101700.81;16126199;19;130332;-59
2023/09/15 09:16:55;;;;;;;2.42;1.70;;;;;;;22.79;44.26;101704.69;16124775;19;130876;-59
2023/09/15 09:22:18;;;;;;;2.47;1.65;;;;;;;22.78;44.52;101698.28;16115880;19;130988;-60
2023/09/15 09:27:40;;;;;;;4.68;1.58;;;;;;;22.76;44.42;101699.66;16122522;19;129595;-58
2023/09/15 09:33:04;;;;;;;3.42;1.40;;;;;;;22.72;44.51;101700.16;16117269;19;131158;-59
2023/09/15 09:38:26;;;;;;;3.88;1.65;;;;;;;22.71;44.65;101694.81;16120348;19;129448;-60
2023/09/15 09:43:51;;;;;;;1.80;1.50;;;;;;;22.70;44.89;101693.97;16123002;19;129225;-59
2023/09/15 09:49:13;;;;;;;1.42;1.23;;;;;;;22.68;44.66;101686.97;16122627;19;129881;-59
2023/09/15 09:54:35;;;;;;;2.60;1.50;;;;;;;22.66;44.73;101678.84;16121282;19;130325;-59
2023/09/15 09:59:57;;;;;;;1.85;1.52;;;;;;;22.64;44.79;101664.34;16122565;19;129445;-60
2023/09/15 10:05:19;;;;;;;3.03;1.20;;;;;;;22.63;45.30;101668.22;16121747;19;132219;-59
2023/09/15 10:10:44;;;;;;;3.70;1.40;;;;;;;22.62;44.90;101665.66;16116415;19;129842;-59
2023/09/15 10:16:06;;;;;;;2.23;1.33;;;;;;;22.61;44.95;101658.41;16116955;19;129720;-59
2023/09/15 10:21:28;;;;;;;2.85;1.52;;;;;;;22.57;45.10;101647.78;16118431;19;130111;-59
2023/09/15 10:26:50;;;;;;;12.82;1.60;;;;;;;22.57;45.07;101646.91;16116029;19;130392;-59
2023/09/15 10:32:17;;;;;;;2.40;1.63;;;;;;;22.58;45.24;101641.09;16111350;19;131024;-59
2023/09/15 10:37:43;;;;;;;3.65;1.52;;;;;;;22.55;45.19;101637.97;16114606;19;129537;-59
2023/09/15 10:43:07;;;;;;;1.80;1.20;;;;;;;22.54;45.24;101627.91;16117772;19;130139;-59
2023/09/15 10:48:43;;;;;;;4.38;1.73;;;;;;;22.54;45.28;101625.13;16111492;19;129403;-59
2023/09/15 10:54:06;;;;;;;3.15;1.58;;;;;;;22.51;45.19;101617.28;16117595;19;129878;-60
2023/09/15 10:59:28;;;;;;;1.65;1.30;;;;;;;22.49;45.29;101623.09;16111975;19;130638;-60
2023/09/15 11:04:50;;;;;;;2.85;1.35;;;;;;;22.49;45.52;101611.94;16116769;19;130245;-59
2023/09/15 11:10:12;;;;;;;3.45;1.52;;;;;;;22.49;45.13;101606.38;16114245;19;131386;-59
2023/09/15 11:15:34;;;;;;;2.65;1.42;;;;;;;22.50;45.29;101615.59;16113987;19;130642;-59
2023/09/15 11:20:57;;;;;;;2.25;1.30;;;;;;;22.50;45.30;101613.63;16113107;19;131370;-59
2023/09/15 11:26:20;;;;;;;2.60;1.60;;;;;;;22.51;45.47;101606.13;16113531;19;128914;-60
2023/09/15 11:31:51;;;;;;;1.70;1.38;;;;;;;22.50;45.61;101608.06;16113185;19;129514;-59
2023/09/15 11:37:13;;;;;;;2.83;1.50;;;;;;;22.50;45.10;101594.13;16116399;19;130579;-60
2023/09/15 11:42:35;;;;;;;3.38;1.30;;;;;;;22.50;45.54;101596.09;16113753;19;129324;-59
2023/09/15 11:47:59;;;;;;;1.80;1.40;;;;;;;22.51;45.44;101592.19;16114937;19;129533;-59
2023/09/15 11:53:25;;;;;;;2.73;1.27;;;;;;;22.49;45.59;101589.66;16113159;19;129638;-60
2023/09/15 11:58:49;;;;;;;1.55;1.30;;;;;;;22.50;45.36;101584.94;16111882;19;134618;-60
2023/09/15 12:04:11;;;;;;;2.08;1.15;;;;;;;22.49;45.68;101583.25;16115240;19;130647;-59
2023/09/15 12:09:34;;;;;;;2.08;1.45;;;;;;;22.49;45.95;101560.94;16112073;19;131005;-59
2023/09/15 12:15:01;;;;;;;2.42;1.35;;;;;;;22.48;45.55;101560.06;16107010;19;130830;-60
2023/09/15 12:20:23;;;;;;;1.98;1.20;;;;;;;22.48;45.60;101556.44;16111667;19;129625;-60
2023/09/15 12:25:45;;;;;;;1.42;1.17;;;;;;;22.49;45.46;101541.41;16110640;19;129466;-60
2023/09/15 12:31:07;;;;;;;1.67;1.45;;;;;;;22.48;45.72;101536.94;16110016;19;133423;-60
2023/09/15 12:36:29;;;;;;;1.77;1.40;;;;;;;22.48;45.75;101525.78;16114802;19;130369;-59
2023/09/15 12:41:59;;;;;;;1.98;1.23;;;;;;;22.49;45.72;101521.91;16129623;19;129413;-60
2023/09/15 12:47:35;;;;;;;1.65;1.20;;;;;;;22.47;45.95;101522.13;16128709;19;129835;-60
2023/09/15 12:52:57;;;;;;;1.85;1.20;;;;;;;22.48;45.61;101517.41;16127558;19;130495;-60
2023/09/15 12:58:19;;;;;;;1.33;1.20;;;;;;;22.47;45.77;101513.78;16125400;19;131223;-59
2023/09/15 13:03:41;;;;;;;1.48;1.35;;;;;;;22.48;46.18;101509.06;16127605;19;129404;-59
2023/09/15 13:09:05;;;;;;;2.85;1.58;;;;;;;22.47;45.87;101501.78;16124366;19;129504;-60
2023/09/15 13:14:29;;;;;;;1.85;1.45;;;;;;;22.48;45.85;101497.91;16126784;19;130345;-59
2023/09/15 13:19:51;;;;;;;1.92;1.23;;;;;;;22.47;45.82;101502.63;16117245;19;130735;-59
2023/09/15 13:25:13;;;;;;;2.78;0.90;;;;;;;22.48;45.90;101500.69;16119440;19;130833;-59
2023/09/15 13:30:35;;;;;;;2.22;0.88;;;;;;;22.50;45.48;101490.13;16124214;19;130133;-60
2023/09/15 13:35:57;;;;;;;1.55;1.02;;;;;;;22.57;45.01;101490.75;16124280;19;132047;-60
2023/09/15 13:41:19;;;;;;;2.03;1.13;;;;;;;22.62;44.66;101482.47;16110936;19;130462;-60
2023/09/15 13:46:41;;;;;;;1.50;0.93;;;;;;;22.64;44.69;101474.69;16115580;19;131329;-59
2023/09/15 13:52:03;;;;;;;1.20;1.00;;;;;;;22.66;44.51;101478.03;16120672;19;129528;-59
2023/09/15 13:57:26;;;;;;;2.15;0.90;;;;;;;22.66;44.23;101472.47;16119384;19;129449;-58
2023/09/15 14:02:50;;;;;;;1.88;1.05;;;;;;;22.65;44.42;101470.78;16121391;19;131536;-59
2023/09/15 14:08:12;;;;;;;4.68;1.10;;;;;;;22.65;44.58;101467.16;16118808;19;134708;-59
2023/09/15 14:13:34;;;;;;;2.30;1.00;;;;;;;22.65;44.41;101464.38;16120075;19;129825;-58
2023/09/15 14:18:56;;;;;;;1.95;1.02;;;;;;;22.65;44.74;101447.63;16119379;19;129285;-58
2023/09/15 14:24:20;;;;;;;1.73;1.17;;;;;;;22.65;44.86;101447.63;16120471;19;129544;-58
2023/09/15 14:29:43;;;;;;;3.17;1.08;;;;;;;22.64;44.82;101441.22;16117190;19;131000;-59
2023/09/15 14:35:05;;;;;;;2.30;1.10;;;;;;;22.63;45.03;101436.75;16123121;19;129573;-57
2023/09/15 14:40:27;;;;;;;1.52;1.00;;;;;;;22.64;44.92;101430.06;16122592;19;134878;-57
2023/09/15 14:45:49;;;;;;;1.95;0.90;;;;;;;22.64;45.08;101424.50;16121977;19;130773;-58
2023/09/15 14:51:11;;;;;;;1.48;0.98;;;;;;;22.64;45.14;101424.50;16108290;19;129904;-59
2023/09/15 14:56:33;;;;;;;1.25;1.00;;;;;;;22.64;44.93;101418.91;16106302;19;130302;-58
2023/09/15 15:01:55;;;;;;;1.40;1.00;;;;;;;22.63;45.11;101414.44;16114950;19;130425;-56
2023/09/15 15:07:17;;;;;;;1.50;1.10;;;;;;;22.63;45.26;101405.22;16110243;19;131204;-56
2023/09/15 15:12:39;;;;;;;1.65;0.90;;;;;;;22.63;45.25;101405.22;16110473;19;132646;-55
2023/09/15 15:18:03;;;;;;;1.25;0.90;;;;;;;22.62;45.16;101398.81;16114248;19;129236;-59
2023/09/15 15:23:27;;;;;;;0.95;0.80;;;;;;;22.61;45.09;101385.97;16111248;19;131159;-56
2023/09/15 15:28:49;;;;;;;3.85;1.08;;;;;;;22.61;45.08;101385.97;16113680;19;130371;-57
2023/09/15 15:34:11;;;;;;;3.60;1.50;;;;;;;22.64;45.17;101379.88;16116243;19;129994;-56
2023/09/15 15:39:33;;;;;;;4.15;1.50;;;;;;;22.67;45.44;101367.34;16115605;19;130714;-56
2023/09/15 15:44:55;;;;;;;4.15;0.98;;;;;;;22.69;45.24;101368.75;16111941;19;130090;-54
2023/09/15 15:50:18;;;;;;;6.07;1.40;;;;;;;22.73;45.32;101366.28;16112138;19;129646;-62
2023/09/15 15:55:40;;;;;;;4.03;0.93;;;;;;;22.78;45.38;101369.13;16109315;19;130855;-59
2023/09/15 16:01:02;;;;;;;5.68;1.90;;;;;;;22.80;45.12;101358.56;16105112;19;130863;-56
2023/09/15 16:06:24;;;;;;;6.13;2.20;;;;;;;22.83;45.34;101362.75;16111225;19;129777;-58
2023/09/15 16:11:48;;;;;;;7.03;2.00;;;;;;;22.85;45.15;101357.75;16121189;19;132925;-58
2023/09/15 16:17:10;;;;;;;8.23;2.15;;;;;;;22.86;45.31;101354.69;16127775;19;131066;-58
2023/09/15 16:22:33;;;;;;;14.98;2.47;;;;;;;22.86;45.17;101354.69;16130593;19;129653;-57
2023/09/15 16:27:54;;;;;;;3.95;1.80;;;;;;;22.86;45.21;101357.47;16124503;19;130405;-54
2023/09/15 16:33:16;;;;;;;9.07;2.67;;;;;;;22.88;45.17;101349.69;16121699;19;130837;-57
2023/09/15 16:38:39;;;;;;;4.07;1.67;;;;;;;22.88;45.54;101357.22;16119754;19;129659;-57
2023/09/15 16:44:02;;;;;;;3.58;1.70;;;;;;;22.88;45.25;101346.91;16120237;19;130741;-56
2023/09/15 16:49:24;;;;;;;5.85;1.63;;;;;;;22.89;45.23;101361.72;16121206;19;130867;-57
2023/09/15 16:54:46;;;;;;;3.35;1.88;;;;;;;22.91;45.05;101361.47;16126742;19;130069;-56
2023/09/15 17:00:11;;;;;;;12.25;2.10;;;;;;;22.91;45.05;101351.13;16143080;19;129979;-58
2023/09/15 17:05:33;;;;;;;4.78;1.80;;;;;;;22.89;45.13;101358.91;16141153;19;130195;-57
2023/09/15 17:10:55;;;;;;;4.97;1.50;;;;;;;22.87;44.90;101350.78;16133626;19;129575;-58
2023/09/15 17:16:21;;;;;;;8.43;1.98;;;;;;;22.87;44.91;101361.13;16125619;19;130909;-57
2023/09/15 17:21:47;;;;;;;8.60;1.80;;;;;;;22.86;44.85;101353.84;16139083;19;131125;-56
2023/09/15 17:27:09;;;;;;;12.13;1.98;;;;;;;22.84;45.20;101350.50;16142787;19;129939;-56
2023/09/15 17:32:31;;;;;;;4.63;1.67;;;;;;;22.83;44.98;101354.38;16123341;19;131145;-55
2023/09/15 17:37:53;;;;;;;13.40;2.28;;;;;;;22.79;45.02;101359.66;16129951;19;131114;-54
2023/09/15 17:43:15;;;;;;;6.55;1.98;;;;;;;22.77;45.01;101355.47;16122552;19;130061;-53
2023/09/15 17:48:37;;;;;;;5.45;1.83;;;;;;;22.74;44.97;101363.25;16117864;19;131353;-54
2023/09/15 17:53:59;;;;;;;15.45;2.03;;;;;;;22.74;45.04;101363.25;16126245;19;130177;-57
2023/09/15 17:59:23;;;;;;;6.53;2.33;;;;;;;22.73;45.00;101366.28;16123700;19;130044;-57
2023/09/15 18:04:45;;;;;;;13.57;2.10;;;;;;;22.71;45.07;101366.56;16127887;19;130348;-56
2023/09/15 18:10:11;;;;;;;14.05;2.75;;;;;;;22.71;45.27;101363.75;16123580;19;129438;-56
2023/09/15 18:15:33;;;;;;;13.95;2.00;;;;;;;22.71;44.99;101369.34;16127841;19;130711;-56
2023/09/15 18:20:55;;;;;;;8.45;1.95;;;;;;;22.70;45.46;101373.22;16118097;19;131100;-55
2023/09/15 18:26:17;;;;;;;8.77;2.38;;;;;;;22.71;45.39;101369.34;16121310;19;129851;-55
2023/09/15 18:31:39;;;;;;;14.00;2.00;;;;;;;22.73;45.59;101369.91;16114834;19;130619;-54
2023/09/15 18:37:03;;;;;;;15.15;2.58;;;;;;;22.75;46.00;101372.44;16114324;19;131909;-53
2023/09/15 18:42:26;;;;;;;13.40;2.67;;;;;;;22.79;45.85;101370.81;16115054;19;130123;-53
2023/09/15 18:47:48;;;;;;;10.48;2.10;;;;;;;22.82;45.74;101375.00;16115986;19;129619;-47
2023/09/15 18:53:10;;;;;;;8.55;2.45;;;;;;;22.85;45.85;101368.91;16118983;19;129883;-47
2023/09/15 18:58:32;;;;;;;7.28;1.70;;;;;;;22.87;45.99;101370.31;16116820;19;131396;-51
2023/09/15 19:03:54;;;;;;;10.88;2.35;;;;;;;22.88;45.82;101369.22;16112339;19;132983;-51
2023/09/15 19:09:17;;;;;;;7.35;1.70;;;;;;;22.91;45.70;101367.88;16113536;19;130789;-50
2023/09/15 19:14:39;;;;;;;18.10;2.92;;;;;;;22.93;46.04;101367.63;16114176;19;129455;-57
2023/09/15 19:20:01;;;;;;;18.05;2.83;;;;;;;22.95;46.04;101373.78;16115911;19;131006;-54
2023/09/15 19:25:24;;;;;;;9.60;2.25;;;;;;;22.97;46.06;101377.13;16115545;19;130803;-51
2023/09/15 19:30:46;;;;;;;15.75;2.60;;;;;;;22.99;46.32;101375.78;16111489;19;132039;-47
2023/09/15 19:36:08;;;;;;;10.18;2.63;;;;;;;23.00;46.55;101377.47;16113540;19;133719;-53
2023/09/15 19:41:30;;;;;;;7.90;1.88;;;;;;;23.01;46.67;101379.16;16116572;19;129912;-52
2023/09/15 19:46:53;;;;;;;75.28;5.88;;;;;;;23.01;46.64;101370.78;16116909;19;133341;-56
2023/09/15 19:52:15;;;;;;;29.63;3.22;;;;;;;23.03;46.78;101373.28;16119971;19;129602;-58
2023/09/15 19:57:47;;;;;;;31.80;4.20;;;;;;;23.06;47.29;101378.34;16113502;19;130815;-53
2023/09/15 20:03:10;;;;;;;17.35;3.33;;;;;;;23.06;47.54;101383.94;16114038;19;131972;-55
2023/09/15 20:08:32;;;;;;;24.60;3.35;;;;;;;23.09;47.73;101380.59;16111326;19;129887;-56
2023/09/15 20:13:55;;;;;;;13.75;2.90;;;;;;;23.10;47.76;101373.91;16116604;19;129211;-57
2023/09/15 20:19:17;;;;;;;17.65;3.33;;;;;;;23.11;47.53;101377.53;16112316;19;129805;-53
2023/09/15 20:24:39;;;;;;;13.20;2.60;;;;;;;23.12;47.74;101374.47;16104195;19;130745;-52
2023/09/15 20:30:02;;;;;;;14.02;2.67;;;;;;;23.10;48.10;101371.09;16106784;19;129865;-51
2023/09/15 20:35:24;;;;;;;19.40;2.92;;;;;;;23.06;47.82;101372.75;16103787;19;129542;-53
2023/09/15 20:40:46;;;;;;;15.38;2.78;;;;;;;23.04;47.67;101378.59;16109411;19;129694;-54
2023/09/15 20:46:08;;;;;;;11.20;2.38;;;;;;;23.02;47.63;101383.59;16110139;19;130008;-53
2023/09/15 20:51:30;;;;;;;11.60;2.40;;;;;;;22.99;47.59;101384.16;16105849;19;130570;-54
2023/09/15 20:56:52;;;;;;;10.57;2.58;;;;;;;22.98;47.68;101385.25;16110639;19;129884;-50
2023/09/15 21:02:14;;;;;;;12.98;2.30;;;;;;;22.96;47.85;101381.88;16120088;19;131967;-54
2023/09/15 21:07:39;;;;;;;9.27;2.20;;;;;;;22.94;47.52;101372.09;16121541;19;129503;-54
2023/09/15 21:13:01;;;;;;;6.15;2.10;;;;;;;22.89;47.53;101379.28;16118098;19;132726;-52
2023/09/15 21:18:23;;;;;;;9.75;1.92;;;;;;;22.87;47.63;101378.69;16115538;19;130700;-52
2023/09/15 21:23:45;;;;;;;7.22;2.00;;;;;;;22.86;47.56;101373.38;16122064;19;129304;-52
2023/09/15 21:29:07;;;;;;;8.90;1.83;;;;;;;22.84;47.49;101383.97;16119081;19;130356;-50
2023/09/15 21:34:29;;;;;;;5.03;1.98;;;;;;;22.83;47.54;101371.13;16118042;19;129745;-52
2023/09/15 21:39:51;;;;;;;6.90;2.03;;;;;;;22.83;47.48;101362.75;16116690;19;130208;-51
2023/09/15 21:45:14;;;;;;;9.13;2.03;;;;;;;22.82;47.26;101366.66;16117895;19;134202;-52
2023/09/15 21:50:35;;;;;;;8.50;1.75;;;;;;;22.80;47.83;101350.19;16117326;19;131707;-50
2023/09/15 21:55:59;;;;;;;7.85;2.00;;;;;;;22.79;47.49;101348.50;16115555;19;130663;-54
2023/09/15 22:01:21;;;;;;;4.10;1.73;;;;;;;22.78;47.76;101340.38;16112847;19;130007;-50
2023/09/15 22:06:43;;;;;;;6.05;1.98;;;;;;;22.75;47.55;101338.97;16112676;19;131834;-50
2023/09/15 22:12:05;;;;;;;6.00;1.48;;;;;;;22.73;47.16;101338.38;16110604;19;129962;-53
2023/09/15 22:17:27;;;;;;;4.60;1.90;;;;;;;22.72;47.30;101331.13;16115837;19;129436;-52
2023/09/15 22:22:51;;;;;;;5.95;1.92;;;;;;;22.71;47.39;101335.00;16116062;19;129337;-53
2023/09/15 22:28:13;;;;;;;4.60;1.97;;;;;;;22.69;47.10;101331.66;16116040;19;133716;-49
2023/09/15 22:33:37;;;;;;;3.53;1.50;;;;;;;22.68;46.95;101328.03;16116167;19;131043;-53
2023/09/15 22:39:00;;;;;;;3.53;1.45;;;;;;;22.67;47.20;101325.50;16114612;19;130974;-53
2023/09/15 22:44:22;;;;;;;6.07;1.83;;;;;;;22.66;46.80;101326.63;16114509;19;129440;-55
2023/09/15 22:49:44;;;;;;;5.70;2.03;;;;;;;22.64;46.88;101318.53;16110791;19;130468;-49
2023/09/15 22:55:10;;;;;;;3.42;1.40;;;;;;;22.62;46.64;101320.72;16105820;19;130432;-54
2023/09/15 23:00:33;;;;;;;6.63;1.60;;;;;;;22.61;47.06;101316.25;16104477;19;130603;-54
2023/09/15 23:05:55;;;;;;;3.00;1.38;;;;;;;22.61;46.95;101307.03;16106199;19;132352;-51
2023/09/15 23:11:16;;;;;;;6.85;1.50;;;;;;;22.60;46.92;101295.06;16115402;19;130783;-53
2023/09/15 23:16:38;;;;;;;3.28;1.40;;;;;;;22.59;46.93;101288.63;16112183;19;130324;-55
2023/09/15 23:22:01;;;;;;;3.20;1.85;;;;;;;22.59;46.61;101276.63;16111539;19;129259;-53
2023/09/15 23:27:23;;;;;;;2.78;1.20;;;;;;;22.58;46.90;101277.75;16113268;19;131713;-52
2023/09/15 23:32:45;;;;;;;1.73;1.02;;;;;;;22.57;46.81;101285.28;16112940;19;130025;-52
2023/09/15 23:38:08;;;;;;;3.08;1.10;;;;;;;22.58;46.55;101297.25;16111721;19;129342;-50
2023/09/15 23:43:30;;;;;;;4.03;1.02;;;;;;;22.57;46.52;101315.09;16111152;19;129863;-51
2023/09/15 23:48:52;;;;;;;2.92;0.80;;;;;;;22.56;46.71;101321.78;16108387;19;129932;-51
2023/09/15 23:54:14;;;;;;;3.20;1.05;;;;;;;22.56;46.79;101310.63;16108381;19;130779;-54
2023/09/15 23:59:36;;;;;;;1.58;0.80;;;;;;;22.53;47.07;101313.94;16111029;19;129888;-50
